sensor_id;sensor_type;location;lat;lon;timestamp;P1;durP1;ratioP1;P2;durP2;ratioP2
58685;SDS011;44465;53.206;-6.106;2023-04-24T00:01:49;17.13;;;4.78;;
58685;SDS011;44465;53.206;-6.106;2023-04-24T00:04:15;18.58;;;4.30;;
58685;SDS011;44465;53.206;-6.106;2023-04-24T00:06:42;14.13;;;4.47;;
58685;SDS011;44465;53.206;-6.106;2023-04-24T00:09:09;12.55;;;4.07;;
58685;SDS011;44465;53.206;-6.106;2023-04-24T00:11:35;9.88;;;4.13;;
58685;SDS011;44465;53.206;-6.106;2023-04-24T00:14:01;9.73;;;4.18;;
58685;SDS011;44465;53.206;-6.106;2023-04-24T00:16:27;9.60;;;3.97;;
58685;SDS011;44465;53.206;-6.106;2023-04-24T00:18:53;16.15;;;5.28;;
58685;SDS011;44465;53.206;-6.106;2023-04-24T00:21:19;30.63;;;8.23;;
58685;SDS011;44465;53.206;-6.106;2023-04-24T00:23:45;23.65;;;6.35;;
58685;SDS011;44465;53.206;-6.106;2023-04-24T00:26:11;16.98;;;5.63;;
58685;SDS011;44465;53.206;-6.106;2023-04-24T00:28:37;17.77;;;6.05;;
58685;SDS011;44465;53.206;-6.106;2023-04-24T00:31:12;17.90;;;5.90;;
58685;SDS011;44465;53.206;-6.106;2023-04-24T00:33:37;19.33;;;5.32;;
58685;SDS011;44465;53.206;-6.106;2023-04-24T00:36:03;19.60;;;5.30;;
58685;SDS011;44465;53.206;-6.106;2023-04-24T00:38:28;16.58;;;5.30;;
58685;SDS011;44465;53.206;-6.106;2023-04-24T00:40:54;13.35;;;5.18;;
58685;SDS011;44465;53.206;-6.106;2023-04-24T00:43:19;14.00;;;4.93;;
58685;SDS011;44465;53.206;-6.106;2023-04-24T00:45:45;17.33;;;5.35;;
58685;SDS011;44465;53.206;-6.106;2023-04-24T00:48:11;15.38;;;5.25;;
58685;SDS011;44465;53.206;-6.106;2023-04-24T00:50:37;15.48;;;4.38;;
58685;SDS011;44465;53.206;-6.106;2023-04-24T00:53:03;13.70;;;4.50;;
58685;SDS011;44465;53.206;-6.106;2023-04-24T00:55:28;13.65;;;4.63;;
58685;SDS011;44465;53.206;-6.106;2023-04-24T00:57:54;13.63;;;4.75;;
58685;SDS011;44465;53.206;-6.106;2023-04-24T01:00:20;11.98;;;4.20;;
58685;SDS011;44465;53.206;-6.106;2023-04-24T01:02:47;12.02;;;3.95;;
58685;SDS011;44465;53.206;-6.106;2023-04-24T01:05:14;13.05;;;4.40;;
58685;SDS011;44465;53.206;-6.106;2023-04-24T01:07:43;11.10;;;4.00;;
58685;SDS011;44465;53.206;-6.106;2023-04-24T01:10:11;10.82;;;4.35;;
58685;SDS011;44465;53.206;-6.106;2023-04-24T01:12:38;12.05;;;4.32;;
58685;SDS011;44465;53.206;-6.106;2023-04-24T01:15:03;9.10;;;3.95;;
58685;SDS011;44465;53.206;-6.106;2023-04-24T01:17:30;9.82;;;3.92;;
58685;SDS011;44465;53.206;-6.106;2023-04-24T01:19:56;11.45;;;4.15;;
58685;SDS011;44465;53.206;-6.106;2023-04-24T01:22:22;10.45;;;3.90;;
58685;SDS011;44465;53.206;-6.106;2023-04-24T01:24:48;7.93;;;4.13;;
58685;SDS011;44465;53.206;-6.106;2023-04-24T01:27:13;8.43;;;3.60;;
58685;SDS011;44465;53.206;-6.106;2023-04-24T01:29:40;7.80;;;4.07;;
58685;SDS011;44465;53.206;-6.106;2023-04-24T01:32:06;10.68;;;4.35;;
58685;SDS011;44465;53.206;-6.106;2023-04-24T01:34:31;10.23;;;3.88;;
58685;SDS011;44465;53.206;-6.106;2023-04-24T01:36:57;6.28;;;3.60;;
58685;SDS011;44465;53.206;-6.106;2023-04-24T01:39:23;6.53;;;3.45;;
58685;SDS011;44465;53.206;-6.106;2023-04-24T01:41:52;5.63;;;3.90;;
58685;SDS011;44465;53.206;-6.106;2023-04-24T01:44:18;7.07;;;3.20;;
58685;SDS011;44465;53.206;-6.106;2023-04-24T01:46:44;9.88;;;3.83;;
58685;SDS011;44465;53.206;-6.106;2023-04-24T01:49:10;8.32;;;3.70;;
58685;SDS011;44465;53.206;-6.106;2023-04-24T01:51:37;8.10;;;3.58;;
58685;SDS011;44465;53.206;-6.106;2023-04-24T01:54:04;8.75;;;3.75;;
58685;SDS011;44465;53.206;-6.106;2023-04-24T01:56:30;7.10;;;3.45;;
58685;SDS011;44465;53.206;-6.106;2023-04-24T01:58:58;6.40;;;3.50;;
58685;SDS011;44465;53.206;-6.106;2023-04-24T02:01:25;7.28;;;3.92;;
58685;SDS011;44465;53.206;-6.106;2023-04-24T02:03:50;5.07;;;3.03;;
58685;SDS011;44465;53.206;-6.106;2023-04-24T02:06:16;6.60;;;3.97;;
58685;SDS011;44465;53.206;-6.106;2023-04-24T02:08:41;6.75;;;3.42;;
58685;SDS011;44465;53.206;-6.106;2023-04-24T02:11:10;6.70;;;3.30;;
58685;SDS011;44465;53.206;-6.106;2023-04-24T02:13:35;6.63;;;3.10;;
58685;SDS011;44465;53.206;-6.106;2023-04-24T02:16:01;4.90;;;3.20;;
58685;SDS011;44465;53.206;-6.106;2023-04-24T02:18:28;6.57;;;3.45;;
58685;SDS011;44465;53.206;-6.106;2023-04-24T02:20:54;7.55;;;3.20;;
58685;SDS011;44465;53.206;-6.106;2023-04-24T02:23:19;5.28;;;3.17;;
58685;SDS011;44465;53.206;-6.106;2023-04-24T02:25:45;4.57;;;2.97;;
58685;SDS011;44465;53.206;-6.106;2023-04-24T02:28:10;7.35;;;3.13;;
58685;SDS011;44465;53.206;-6.106;2023-04-24T02:30:36;5.55;;;2.78;;
58685;SDS011;44465;53.206;-6.106;2023-04-24T02:33:01;4.72;;;3.10;;
58685;SDS011;44465;53.206;-6.106;2023-04-24T02:35:28;7.28;;;3.35;;
58685;SDS011;44465;53.206;-6.106;2023-04-24T02:37:53;5.13;;;3.22;;
58685;SDS011;44465;53.206;-6.106;2023-04-24T02:40:19;4.38;;;3.10;;
58685;SDS011;44465;53.206;-6.106;2023-04-24T02:42:45;3.75;;;2.70;;
58685;SDS011;44465;53.206;-6.106;2023-04-24T02:45:11;4.88;;;3.05;;
58685;SDS011;44465;53.206;-6.106;2023-04-24T02:47:36;3.83;;;3.15;;
58685;SDS011;44465;53.206;-6.106;2023-04-24T02:50:02;4.10;;;3.20;;
58685;SDS011;44465;53.206;-6.106;2023-04-24T02:52:28;5.15;;;2.85;;
58685;SDS011;44465;53.206;-6.106;2023-04-24T02:54:53;5.75;;;2.92;;
58685;SDS011;44465;53.206;-6.106;2023-04-24T02:57:19;6.22;;;3.15;;
58685;SDS011;44465;53.206;-6.106;2023-04-24T02:59:44;4.47;;;3.00;;
58685;SDS011;44465;53.206;-6.106;2023-04-24T03:02:10;3.80;;;2.83;;
58685;SDS011;44465;53.206;-6.106;2023-04-24T03:04:35;3.80;;;2.70;;
58685;SDS011;44465;53.206;-6.106;2023-04-24T03:07:01;5.35;;;3.13;;
58685;SDS011;44465;53.206;-6.106;2023-04-24T03:09:27;3.38;;;3.00;;
58685;SDS011;44465;53.206;-6.106;2023-04-24T03:11:52;5.47;;;2.75;;
58685;SDS011;44465;53.206;-6.106;2023-04-24T03:14:17;4.03;;;2.80;;
58685;SDS011;44465;53.206;-6.106;2023-04-24T03:16:43;3.20;;;2.55;;
58685;SDS011;44465;53.206;-6.106;2023-04-24T03:19:08;3.83;;;2.65;;
58685;SDS011;44465;53.206;-6.106;2023-04-24T03:21:42;3.17;;;2.65;;
58685;SDS011;44465;53.206;-6.106;2023-04-24T03:24:08;3.60;;;2.47;;
58685;SDS011;44465;53.206;-6.106;2023-04-24T03:26:34;2.95;;;2.45;;
58685;SDS011;44465;53.206;-6.106;2023-04-24T03:29:16;3.92;;;2.63;;
58685;SDS011;44465;53.206;-6.106;2023-04-24T03:31:41;3.65;;;2.35;;
58685;SDS011;44465;53.206;-6.106;2023-04-24T03:34:07;3.67;;;2.38;;
58685;SDS011;44465;53.206;-6.106;2023-04-24T03:36:32;4.63;;;2.67;;
58685;SDS011;44465;53.206;-6.106;2023-04-24T03:38:58;2.70;;;2.50;;
58685;SDS011;44465;53.206;-6.106;2023-04-24T03:41:29;3.13;;;2.40;;
58685;SDS011;44465;53.206;-6.106;2023-04-24T03:44:09;4.57;;;2.47;;
58685;SDS011;44465;53.206;-6.106;2023-04-24T03:46:35;2.88;;;2.10;;
58685;SDS011;44465;53.206;-6.106;2023-04-24T03:49:01;2.53;;;2.25;;
58685;SDS011;44465;53.206;-6.106;2023-04-24T03:51:31;3.45;;;2.15;;
58685;SDS011;44465;53.206;-6.106;2023-04-24T03:54:06;2.25;;;1.98;;
58685;SDS011;44465;53.206;-6.106;2023-04-24T03:56:34;4.10;;;2.28;;
58685;SDS011;44465;53.206;-6.106;2023-04-24T03:59:00;3.45;;;2.15;;
58685;SDS011;44465;53.206;-6.106;2023-04-24T04:01:26;2.35;;;1.98;;
58685;SDS011;44465;53.206;-6.106;2023-04-24T04:04:00;2.35;;;2.15;;
58685;SDS011;44465;53.206;-6.106;2023-04-24T04:06:26;2.17;;;1.98;;
58685;SDS011;44465;53.206;-6.106;2023-04-24T04:08:53;3.08;;;2.10;;
58685;SDS011;44465;53.206;-6.106;2023-04-24T04:11:19;2.83;;;2.00;;
58685;SDS011;44465;53.206;-6.106;2023-04-24T04:13:45;2.15;;;1.92;;
58685;SDS011;44465;53.206;-6.106;2023-04-24T04:16:13;2.40;;;2.10;;
58685;SDS011;44465;53.206;-6.106;2023-04-24T04:18:42;3.08;;;2.33;;
58685;SDS011;44465;53.206;-6.106;2023-04-24T04:21:11;5.78;;;2.28;;
58685;SDS011;44465;53.206;-6.106;2023-04-24T04:23:36;3.15;;;2.13;;
58685;SDS011;44465;53.206;-6.106;2023-04-24T04:26:08;2.58;;;1.92;;
58685;SDS011;44465;53.206;-6.106;2023-04-24T04:28:49;3.03;;;2.00;;
58685;SDS011;44465;53.206;-6.106;2023-04-24T04:31:15;2.95;;;1.85;;
58685;SDS011;44465;53.206;-6.106;2023-04-24T04:33:40;2.08;;;1.95;;
58685;SDS011;44465;53.206;-6.106;2023-04-24T04:36:07;2.70;;;2.07;;
58685;SDS011;44465;53.206;-6.106;2023-04-24T04:38:37;2.85;;;1.80;;
58685;SDS011;44465;53.206;-6.106;2023-04-24T04:41:10;1.98;;;1.73;;
58685;SDS011;44465;53.206;-6.106;2023-04-24T04:43:36;2.38;;;1.98;;
58685;SDS011;44465;53.206;-6.106;2023-04-24T04:46:04;3.60;;;2.15;;
58685;SDS011;44465;53.206;-6.106;2023-04-24T04:48:49;2.13;;;1.58;;
58685;SDS011;44465;53.206;-6.106;2023-04-24T04:51:15;2.30;;;1.80;;
58685;SDS011;44465;53.206;-6.106;2023-04-24T04:53:40;1.70;;;1.60;;
58685;SDS011;44465;53.206;-6.106;2023-04-24T04:56:06;2.67;;;1.85;;
58685;SDS011;44465;53.206;-6.106;2023-04-24T04:58:43;1.70;;;1.60;;
58685;SDS011;44465;53.206;-6.106;2023-04-24T05:01:12;1.60;;;1.50;;
58685;SDS011;44465;53.206;-6.106;2023-04-24T05:03:41;2.28;;;1.90;;
58685;SDS011;44465;53.206;-6.106;2023-04-24T05:06:09;1.85;;;1.70;;
58685;SDS011;44465;53.206;-6.106;2023-04-24T05:08:37;2.65;;;1.50;;
58685;SDS011;44465;53.206;-6.106;2023-04-24T05:11:05;2.85;;;1.50;;
58685;SDS011;44465;53.206;-6.106;2023-04-24T05:13:31;2.42;;;1.50;;
58685;SDS011;44465;53.206;-6.106;2023-04-24T05:15:57;2.97;;;1.45;;
58685;SDS011;44465;53.206;-6.106;2023-04-24T05:18:24;1.77;;;1.37;;
58685;SDS011;44465;53.206;-6.106;2023-04-24T05:20:49;2.00;;;1.80;;
58685;SDS011;44465;53.206;-6.106;2023-04-24T05:23:15;2.92;;;1.70;;
58685;SDS011;44465;53.206;-6.106;2023-04-24T05:25:42;2.03;;;1.40;;
58685;SDS011;44465;53.206;-6.106;2023-04-24T05:28:11;1.63;;;1.52;;
58685;SDS011;44465;53.206;-6.106;2023-04-24T05:30:37;2.00;;;1.80;;
58685;SDS011;44465;53.206;-6.106;2023-04-24T05:33:02;2.15;;;1.83;;
58685;SDS011;44465;53.206;-6.106;2023-04-24T05:35:30;3.22;;;1.65;;
58685;SDS011;44465;53.206;-6.106;2023-04-24T05:37:56;1.83;;;1.63;;
58685;SDS011;44465;53.206;-6.106;2023-04-24T05:40:21;1.85;;;1.58;;
58685;SDS011;44465;53.206;-6.106;2023-04-24T05:42:47;1.75;;;1.60;;
58685;SDS011;44465;53.206;-6.106;2023-04-24T05:45:12;1.85;;;1.42;;
58685;SDS011;44465;53.206;-6.106;2023-04-24T05:47:41;1.95;;;1.50;;
58685;SDS011;44465;53.206;-6.106;2023-04-24T05:50:09;3.60;;;1.60;;
58685;SDS011;44465;53.206;-6.106;2023-04-24T05:52:35;1.98;;;1.50;;
58685;SDS011;44465;53.206;-6.106;2023-04-24T05:55:04;1.73;;;1.60;;
58685;SDS011;44465;53.206;-6.106;2023-04-24T05:57:32;2.70;;;1.33;;
58685;SDS011;44465;53.206;-6.106;2023-04-24T06:00:02;2.80;;;1.50;;
58685;SDS011;44465;53.206;-6.106;2023-04-24T06:02:38;1.73;;;1.57;;
58685;SDS011;44465;53.206;-6.106;2023-04-24T06:05:04;2.95;;;1.50;;
58685;SDS011;44465;53.206;-6.106;2023-04-24T06:07:30;1.75;;;1.27;;
58685;SDS011;44465;53.206;-6.106;2023-04-24T06:09:57;3.53;;;1.27;;
58685;SDS011;44465;53.206;-6.106;2023-04-24T06:12:23;2.50;;;1.30;;
58685;SDS011;44465;53.206;-6.106;2023-04-24T06:14:59;1.83;;;1.63;;
58685;SDS011;44465;53.206;-6.106;2023-04-24T06:17:43;1.55;;;1.13;;
58685;SDS011;44465;53.206;-6.106;2023-04-24T06:20:10;1.88;;;1.27;;
58685;SDS011;44465;53.206;-6.106;2023-04-24T06:22:36;1.75;;;1.38;;
58685;SDS011;44465;53.206;-6.106;2023-04-24T06:25:02;1.63;;;1.23;;
58685;SDS011;44465;53.206;-6.106;2023-04-24T06:27:27;2.78;;;1.70;;
58685;SDS011;44465;53.206;-6.106;2023-04-24T06:29:53;1.30;;;1.20;;
58685;SDS011;44465;53.206;-6.106;2023-04-24T06:32:21;1.57;;;1.23;;
58685;SDS011;44465;53.206;-6.106;2023-04-24T06:34:47;1.00;;;1.00;;
58685;SDS011;44465;53.206;-6.106;2023-04-24T06:37:13;1.23;;;1.10;;
58685;SDS011;44465;53.206;-6.106;2023-04-24T06:39:39;2.42;;;1.02;;
58685;SDS011;44465;53.206;-6.106;2023-04-24T06:42:04;1.58;;;1.25;;
58685;SDS011;44465;53.206;-6.106;2023-04-24T06:44:33;3.08;;;1.42;;
58685;SDS011;44465;53.206;-6.106;2023-04-24T06:47:02;1.27;;;1.17;;
58685;SDS011;44465;53.206;-6.106;2023-04-24T06:49:28;1.67;;;1.10;;
58685;SDS011;44465;53.206;-6.106;2023-04-24T06:51:53;1.38;;;1.02;;
58685;SDS011;44465;53.206;-6.106;2023-04-24T06:54:19;2.20;;;1.30;;
58685;SDS011;44465;53.206;-6.106;2023-04-24T06:56:45;1.63;;;1.17;;
58685;SDS011;44465;53.206;-6.106;2023-04-24T06:59:12;1.67;;;1.00;;
58685;SDS011;44465;53.206;-6.106;2023-04-24T07:01:38;1.95;;;1.20;;
58685;SDS011;44465;53.206;-6.106;2023-04-24T07:04:03;2.53;;;1.50;;
58685;SDS011;44465;53.206;-6.106;2023-04-24T07:06:29;2.83;;;1.10;;
58685;SDS011;44465;53.206;-6.106;2023-04-24T07:08:56;1.10;;;1.00;;
58685;SDS011;44465;53.206;-6.106;2023-04-24T07:11:22;1.15;;;0.80;;
58685;SDS011;44465;53.206;-6.106;2023-04-24T07:13:48;3.15;;;1.52;;
58685;SDS011;44465;53.206;-6.106;2023-04-24T07:16:14;2.03;;;1.17;;
58685;SDS011;44465;53.206;-6.106;2023-04-24T07:18:39;1.20;;;1.00;;
58685;SDS011;44465;53.206;-6.106;2023-04-24T07:21:05;1.80;;;0.77;;
58685;SDS011;44465;53.206;-6.106;2023-04-24T07:23:32;1.83;;;1.20;;
58685;SDS011;44465;53.206;-6.106;2023-04-24T07:25:57;2.17;;;1.00;;
58685;SDS011;44465;53.206;-6.106;2023-04-24T07:28:23;1.10;;;0.90;;
58685;SDS011;44465;53.206;-6.106;2023-04-24T07:30:48;1.65;;;1.05;;
58685;SDS011;44465;53.206;-6.106;2023-04-24T07:33:14;1.65;;;1.13;;
58685;SDS011;44465;53.206;-6.106;2023-04-24T07:35:39;1.73;;;0.90;;
58685;SDS011;44465;53.206;-6.106;2023-04-24T07:38:05;1.15;;;0.95;;
58685;SDS011;44465;53.206;-6.106;2023-04-24T07:40:30;5.45;;;1.30;;
58685;SDS011;44465;53.206;-6.106;2023-04-24T07:42:56;3.40;;;1.15;;
58685;SDS011;44465;53.206;-6.106;2023-04-24T07:45:21;14.40;;;2.50;;
58685;SDS011;44465;53.206;-6.106;2023-04-24T07:47:48;11.82;;;1.90;;
58685;SDS011;44465;53.206;-6.106;2023-04-24T07:50:15;9.18;;;1.80;;
58685;SDS011;44465;53.206;-6.106;2023-04-24T07:52:41;10.18;;;1.65;;
58685;SDS011;44465;53.206;-6.106;2023-04-24T07:55:06;12.82;;;2.35;;
58685;SDS011;44465;53.206;-6.106;2023-04-24T07:57:32;15.73;;;1.88;;
58685;SDS011;44465;53.206;-6.106;2023-04-24T07:59:57;11.30;;;1.70;;
58685;SDS011;44465;53.206;-6.106;2023-04-24T08:02:23;13.35;;;1.70;;
58685;SDS011;44465;53.206;-6.106;2023-04-24T08:04:54;11.45;;;2.60;;
58685;SDS011;44465;53.206;-6.106;2023-04-24T08:07:19;8.20;;;1.60;;
58685;SDS011;44465;53.206;-6.106;2023-04-24T08:09:45;7.13;;;2.08;;
58685;SDS011;44465;53.206;-6.106;2023-04-24T08:12:11;4.28;;;1.88;;
58685;SDS011;44465;53.206;-6.106;2023-04-24T08:14:36;11.57;;;2.50;;
58685;SDS011;44465;53.206;-6.106;2023-04-24T08:17:02;9.93;;;1.80;;
58685;SDS011;44465;53.206;-6.106;2023-04-24T08:19:28;10.48;;;1.83;;
58685;SDS011;44465;53.206;-6.106;2023-04-24T08:21:54;8.38;;;1.63;;
58685;SDS011;44465;53.206;-6.106;2023-04-24T08:24:19;12.15;;;2.33;;
58685;SDS011;44465;53.206;-6.106;2023-04-24T08:26:45;12.20;;;2.05;;
58685;SDS011;44465;53.206;-6.106;2023-04-24T08:29:10;18.08;;;3.35;;
58685;SDS011;44465;53.206;-6.106;2023-04-24T08:31:36;20.52;;;3.55;;
58685;SDS011;44465;53.206;-6.106;2023-04-24T08:34:01;12.73;;;2.70;;
58685;SDS011;44465;53.206;-6.106;2023-04-24T08:36:26;14.32;;;2.30;;
58685;SDS011;44465;53.206;-6.106;2023-04-24T08:38:52;20.40;;;3.50;;
58685;SDS011;44465;53.206;-6.106;2023-04-24T08:41:18;11.10;;;2.63;;
58685;SDS011;44465;53.206;-6.106;2023-04-24T08:43:45;13.18;;;2.60;;
58685;SDS011;44465;53.206;-6.106;2023-04-24T08:46:11;14.27;;;2.10;;
58685;SDS011;44465;53.206;-6.106;2023-04-24T08:48:38;9.57;;;2.35;;
58685;SDS011;44465;53.206;-6.106;2023-04-24T08:51:05;12.82;;;2.22;;
58685;SDS011;44465;53.206;-6.106;2023-04-24T08:53:32;13.90;;;2.72;;
58685;SDS011;44465;53.206;-6.106;2023-04-24T08:55:58;11.77;;;2.20;;
58685;SDS011;44465;53.206;-6.106;2023-04-24T08:58:26;10.95;;;2.33;;
58685;SDS011;44465;53.206;-6.106;2023-04-24T09:00:56;15.80;;;3.07;;
58685;SDS011;44465;53.206;-6.106;2023-04-24T09:03:22;9.32;;;2.25;;
58685;SDS011;44465;53.206;-6.106;2023-04-24T09:05:49;9.18;;;3.28;;
58685;SDS011;44465;53.206;-6.106;2023-04-24T09:08:18;13.60;;;2.42;;
58685;SDS011;44465;53.206;-6.106;2023-04-24T09:10:44;11.68;;;2.30;;
58685;SDS011;44465;53.206;-6.106;2023-04-24T09:13:10;12.23;;;2.53;;
58685;SDS011;44465;53.206;-6.106;2023-04-24T09:15:37;13.90;;;2.60;;
58685;SDS011;44465;53.206;-6.106;2023-04-24T09:18:03;14.50;;;2.20;;
58685;SDS011;44465;53.206;-6.106;2023-04-24T09:20:30;9.73;;;1.90;;
58685;SDS011;44465;53.206;-6.106;2023-04-24T09:22:59;10.57;;;2.10;;
58685;SDS011;44465;53.206;-6.106;2023-04-24T09:25:30;11.35;;;2.38;;
58685;SDS011;44465;53.206;-6.106;2023-04-24T09:28:00;11.23;;;2.20;;
58685;SDS011;44465;53.206;-6.106;2023-04-24T09:30:28;11.43;;;2.55;;
58685;SDS011;44465;53.206;-6.106;2023-04-24T09:33:09;15.13;;;2.70;;
58685;SDS011;44465;53.206;-6.106;2023-04-24T09:35:50;18.95;;;3.47;;
58685;SDS011;44465;53.206;-6.106;2023-04-24T09:38:17;11.73;;;2.30;;
58685;SDS011;44465;53.206;-6.106;2023-04-24T09:40:42;9.85;;;2.38;;
58685;SDS011;44465;53.206;-6.106;2023-04-24T09:43:11;10.52;;;1.85;;
58685;SDS011;44465;53.206;-6.106;2023-04-24T09:45:37;21.35;;;3.13;;
58685;SDS011;44465;53.206;-6.106;2023-04-24T09:48:04;13.52;;;2.75;;
58685;SDS011;44465;53.206;-6.106;2023-04-24T09:50:31;10.77;;;2.45;;
58685;SDS011;44465;53.206;-6.106;2023-04-24T09:53:04;9.23;;;2.03;;
58685;SDS011;44465;53.206;-6.106;2023-04-24T09:55:33;6.90;;;2.05;;
58685;SDS011;44465;53.206;-6.106;2023-04-24T09:58:05;6.97;;;1.60;;
58685;SDS011;44465;53.206;-6.106;2023-04-24T10:00:33;6.22;;;1.80;;
58685;SDS011;44465;53.206;-6.106;2023-04-24T10:03:02;11.80;;;2.30;;
58685;SDS011;44465;53.206;-6.106;2023-04-24T10:05:30;6.72;;;1.58;;
58685;SDS011;44465;53.206;-6.106;2023-04-24T10:07:59;11.48;;;3.03;;
58685;SDS011;44465;53.206;-6.106;2023-04-24T10:10:28;6.45;;;2.15;;
58685;SDS011;44465;53.206;-6.106;2023-04-24T10:12:55;9.85;;;1.88;;
58685;SDS011;44465;53.206;-6.106;2023-04-24T10:15:20;5.85;;;1.60;;
58685;SDS011;44465;53.206;-6.106;2023-04-24T10:17:49;13.68;;;2.90;;
58685;SDS011;44465;53.206;-6.106;2023-04-24T10:20:19;14.38;;;2.60;;
58685;SDS011;44465;53.206;-6.106;2023-04-24T10:22:49;12.52;;;2.08;;
58685;SDS011;44465;53.206;-6.106;2023-04-24T10:25:17;18.63;;;2.50;;
58685;SDS011;44465;53.206;-6.106;2023-04-24T10:27:45;13.15;;;2.33;;
58685;SDS011;44465;53.206;-6.106;2023-04-24T10:30:11;10.48;;;2.28;;
58685;SDS011;44465;53.206;-6.106;2023-04-24T10:32:37;11.30;;;2.00;;
58685;SDS011;44465;53.206;-6.106;2023-04-24T10:35:03;12.93;;;2.13;;
58685;SDS011;44465;53.206;-6.106;2023-04-24T10:37:29;9.10;;;1.90;;
58685;SDS011;44465;53.206;-6.106;2023-04-24T10:40:02;6.28;;;1.88;;
58685;SDS011;44465;53.206;-6.106;2023-04-24T10:42:28;10.45;;;2.47;;
58685;SDS011;44465;53.206;-6.106;2023-04-24T10:44:53;12.63;;;2.30;;
58685;SDS011;44465;53.206;-6.106;2023-04-24T10:47:20;13.75;;;2.40;;
58685;SDS011;44465;53.206;-6.106;2023-04-24T10:49:46;11.00;;;2.50;;
58685;SDS011;44465;53.206;-6.106;2023-04-24T10:52:11;10.85;;;2.05;;
58685;SDS011;44465;53.206;-6.106;2023-04-24T10:59:43;13.65;;;2.45;;
58685;SDS011;44465;53.206;-6.106;2023-04-24T11:02:09;13.40;;;3.00;;
58685;SDS011;44465;53.206;-6.106;2023-04-24T11:04:35;15.30;;;2.17;;
58685;SDS011;44465;53.206;-6.106;2023-04-24T11:07:00;9.55;;;2.35;;
58685;SDS011;44465;53.206;-6.106;2023-04-24T11:09:27;11.80;;;2.20;;
58685;SDS011;44465;53.206;-6.106;2023-04-24T11:12:07;22.77;;;3.10;;
58685;SDS011;44465;53.206;-6.106;2023-04-24T11:14:59;10.25;;;2.33;;
58685;SDS011;44465;53.206;-6.106;2023-04-24T11:17:29;10.23;;;2.80;;
58685;SDS011;44465;53.206;-6.106;2023-04-24T11:20:06;11.27;;;2.20;;
58685;SDS011;44465;53.206;-6.106;2023-04-24T11:22:34;43.55;;;6.18;;
58685;SDS011;44465;53.206;-6.106;2023-04-24T11:25:01;14.57;;;2.97;;
58685;SDS011;44465;53.206;-6.106;2023-04-24T11:27:30;14.45;;;2.60;;
58685;SDS011;44465;53.206;-6.106;2023-04-24T11:34:59;13.80;;;2.47;;
58685;SDS011;44465;53.206;-6.106;2023-04-24T11:37:27;8.23;;;2.47;;
58685;SDS011;44465;53.206;-6.106;2023-04-24T11:39:58;10.63;;;2.92;;
58685;SDS011;44465;53.206;-6.106;2023-04-24T11:42:24;13.98;;;2.20;;
58685;SDS011;44465;53.206;-6.106;2023-04-24T11:44:54;10.65;;;1.92;;
58685;SDS011;44465;53.206;-6.106;2023-04-24T11:47:28;11.40;;;1.90;;
58685;SDS011;44465;53.206;-6.106;2023-04-24T11:49:58;8.50;;;1.85;;
58685;SDS011;44465;53.206;-6.106;2023-04-24T11:52:25;7.78;;;2.10;;
58685;SDS011;44465;53.206;-6.106;2023-04-24T11:54:52;11.60;;;2.07;;
58685;SDS011;44465;53.206;-6.106;2023-04-24T11:57:20;6.70;;;1.73;;
58685;SDS011;44465;53.206;-6.106;2023-04-24T11:59:47;4.68;;;1.83;;
58685;SDS011;44465;53.206;-6.106;2023-04-24T12:02:20;5.68;;;1.85;;
58685;SDS011;44465;53.206;-6.106;2023-04-24T12:04:46;11.30;;;2.70;;
58685;SDS011;44465;53.206;-6.106;2023-04-24T12:07:12;15.82;;;2.92;;
58685;SDS011;44465;53.206;-6.106;2023-04-24T12:09:57;7.57;;;2.05;;
58685;SDS011;44465;53.206;-6.106;2023-04-24T12:12:25;12.05;;;3.13;;
58685;SDS011;44465;53.206;-6.106;2023-04-24T12:14:53;8.38;;;2.00;;
58685;SDS011;44465;53.206;-6.106;2023-04-24T12:19:59;14.60;;;2.92;;
58685;SDS011;44465;53.206;-6.106;2023-04-24T12:22:27;5.70;;;1.83;;
58685;SDS011;44465;53.206;-6.106;2023-04-24T12:25:02;12.30;;;2.13;;
58685;SDS011;44465;53.206;-6.106;2023-04-24T12:29:59;13.38;;;1.88;;
58685;SDS011;44465;53.206;-6.106;2023-04-24T12:32:26;13.48;;;1.75;;
58685;SDS011;44465;53.206;-6.106;2023-04-24T12:34:52;13.30;;;2.00;;
58685;SDS011;44465;53.206;-6.106;2023-04-24T12:37:18;23.58;;;3.20;;
58685;SDS011;44465;53.206;-6.106;2023-04-24T12:39:48;13.35;;;2.22;;
58685;SDS011;44465;53.206;-6.106;2023-04-24T12:42:29;12.50;;;3.03;;
58685;SDS011;44465;53.206;-6.106;2023-04-24T12:44:56;10.02;;;2.17;;
58685;SDS011;44465;53.206;-6.106;2023-04-24T12:47:23;13.60;;;2.75;;
58685;SDS011;44465;53.206;-6.106;2023-04-24T12:49:49;16.15;;;2.38;;
58685;SDS011;44465;53.206;-6.106;2023-04-24T12:52:17;8.38;;;2.20;;
58685;SDS011;44465;53.206;-6.106;2023-04-24T12:57:10;14.95;;;2.72;;
58685;SDS011;44465;53.206;-6.106;2023-04-24T12:59:36;21.42;;;3.83;;
58685;SDS011;44465;53.206;-6.106;2023-04-24T13:02:02;14.45;;;3.17;;
58685;SDS011;44465;53.206;-6.106;2023-04-24T13:04:27;17.33;;;4.10;;
58685;SDS011;44465;53.206;-6.106;2023-04-24T13:06:53;15.85;;;3.40;;
58685;SDS011;44465;53.206;-6.106;2023-04-24T13:09:18;22.02;;;3.95;;
58685;SDS011;44465;53.206;-6.106;2023-04-24T13:11:44;26.30;;;3.90;;
58685;SDS011;44465;53.206;-6.106;2023-04-24T13:14:09;21.40;;;3.20;;
58685;SDS011;44465;53.206;-6.106;2023-04-24T13:16:35;15.40;;;2.65;;
58685;SDS011;44465;53.206;-6.106;2023-04-24T13:19:00;17.25;;;3.15;;
58685;SDS011;44465;53.206;-6.106;2023-04-24T13:21:26;15.70;;;4.20;;
58685;SDS011;44465;53.206;-6.106;2023-04-24T13:23:51;21.98;;;3.50;;
58685;SDS011;44465;53.206;-6.106;2023-04-24T13:26:17;14.65;;;3.17;;
58685;SDS011;44465;53.206;-6.106;2023-04-24T13:28:42;7.93;;;2.30;;
58685;SDS011;44465;53.206;-6.106;2023-04-24T13:31:07;12.95;;;2.90;;
58685;SDS011;44465;53.206;-6.106;2023-04-24T13:33:33;10.18;;;2.40;;
58685;SDS011;44465;53.206;-6.106;2023-04-24T13:35:58;13.60;;;3.95;;
58685;SDS011;44465;53.206;-6.106;2023-04-24T13:38:24;17.23;;;3.35;;
58685;SDS011;44465;53.206;-6.106;2023-04-24T13:40:50;27.70;;;4.78;;
58685;SDS011;44465;53.206;-6.106;2023-04-24T13:43:15;8.65;;;2.38;;
58685;SDS011;44465;53.206;-6.106;2023-04-24T13:45:41;19.35;;;3.45;;
58685;SDS011;44465;53.206;-6.106;2023-04-24T13:48:06;16.50;;;3.38;;
58685;SDS011;44465;53.206;-6.106;2023-04-24T13:50:33;11.98;;;2.83;;
58685;SDS011;44465;53.206;-6.106;2023-04-24T13:52:59;17.67;;;3.50;;
58685;SDS011;44465;53.206;-6.106;2023-04-24T13:55:26;24.20;;;3.00;;
58685;SDS011;44465;53.206;-6.106;2023-04-24T13:57:51;23.38;;;2.90;;
58685;SDS011;44465;53.206;-6.106;2023-04-24T14:00:20;18.10;;;3.10;;
58685;SDS011;44465;53.206;-6.106;2023-04-24T14:02:46;20.48;;;3.30;;
58685;SDS011;44465;53.206;-6.106;2023-04-24T14:05:12;14.13;;;3.03;;
58685;SDS011;44465;53.206;-6.106;2023-04-24T14:07:40;17.80;;;3.30;;
58685;SDS011;44465;53.206;-6.106;2023-04-24T14:10:06;9.60;;;2.88;;
58685;SDS011;44465;53.206;-6.106;2023-04-24T14:12:32;11.55;;;2.78;;
58685;SDS011;44465;53.206;-6.106;2023-04-24T14:14:58;11.13;;;2.85;;
58685;SDS011;44465;53.206;-6.106;2023-04-24T14:17:24;10.50;;;3.15;;
58685;SDS011;44465;53.206;-6.106;2023-04-24T14:19:49;15.25;;;2.78;;
58685;SDS011;44465;53.206;-6.106;2023-04-24T14:22:16;12.63;;;2.55;;
58685;SDS011;44465;53.206;-6.106;2023-04-24T14:24:42;12.90;;;2.92;;
58685;SDS011;44465;53.206;-6.106;2023-04-24T14:27:08;18.13;;;3.10;;
58685;SDS011;44465;53.206;-6.106;2023-04-24T14:29:33;13.80;;;2.10;;
58685;SDS011;44465;53.206;-6.106;2023-04-24T14:31:59;14.80;;;3.60;;
58685;SDS011;44465;53.206;-6.106;2023-04-24T14:34:24;16.45;;;3.08;;
58685;SDS011;44465;53.206;-6.106;2023-04-24T14:36:49;19.35;;;2.90;;
58685;SDS011;44465;53.206;-6.106;2023-04-24T14:39:15;12.02;;;2.88;;
58685;SDS011;44465;53.206;-6.106;2023-04-24T14:41:40;13.35;;;2.90;;
58685;SDS011;44465;53.206;-6.106;2023-04-24T14:44:06;17.42;;;3.63;;
58685;SDS011;44465;53.206;-6.106;2023-04-24T14:46:31;11.07;;;2.00;;